createdAt,value
2023-11-15T00:01:37.962Z,0.47
2023-11-15T00:04:09.190Z,2.77
2023-11-15T00:06:38.556Z,0.00
2023-11-15T00:09:08.193Z,0.90
2023-11-15T00:11:37.506Z,1.45
2023-11-15T00:14:07.433Z,0.33
2023-11-15T00:16:36.822Z,1.65
2023-11-15T00:19:07.813Z,3.50
2023-11-15T00:21:37.606Z,0.10
2023-11-15T00:24:07.974Z,0.98
2023-11-15T00:26:38.027Z,0.37
2023-11-15T00:29:07.325Z,3.37
2023-11-15T00:31:36.644Z,3.25
2023-11-15T00:34:06.437Z,0.00
2023-11-15T00:36:37.437Z,0.95
2023-11-15T00:39:08.634Z,1.12
2023-11-15T00:41:38.388Z,0.00
2023-11-15T00:44:08.768Z,5.33
2023-11-15T00:46:38.150Z,0.00
2023-11-15T00:49:07.499Z,0.47
2023-11-15T00:51:36.991Z,0.42
2023-11-15T00:54:07.790Z,0.10
2023-11-15T00:56:37.242Z,0.17
2023-11-15T00:59:06.769Z,0.33
2023-11-15T01:01:36.110Z,0.08
2023-11-15T01:04:06.863Z,2.12
2023-11-15T01:06:36.393Z,9.10
2023-11-15T01:09:07.695Z,0.47
2023-11-15T01:11:37.255Z,0.47
2023-11-15T01:14:06.824Z,0.00
2023-11-15T01:16:36.163Z,0.10
2023-11-15T01:19:05.637Z,1.07
2023-11-15T01:21:34.901Z,7.75
2023-11-15T01:24:04.418Z,14.93
2023-11-15T01:26:33.771Z,0.13
2023-11-15T01:29:03.355Z,0.10
2023-11-15T01:31:32.904Z,1.05
2023-11-15T01:34:02.163Z,0.25
2023-11-15T01:36:31.638Z,0.25
2023-11-15T01:39:00.949Z,0.30
2023-11-15T01:41:30.849Z,0.03
2023-11-15T01:44:00.149Z,0.25
2023-11-15T01:46:29.693Z,0.00
2023-11-15T01:49:00.669Z,0.55
2023-11-15T01:51:30.070Z,1.62
2023-11-15T01:53:59.331Z,0.28
2023-11-15T01:56:28.692Z,0.28
2023-11-15T01:58:59.498Z,0.00
2023-11-15T02:01:28.883Z,1.67
2023-11-15T02:03:58.306Z,0.10
2023-11-15T02:06:29.888Z,0.65
2023-11-15T02:09:01.592Z,0.28
2023-11-15T02:11:31.478Z,0.37
2023-11-15T02:14:01.039Z,0.17
2023-11-15T02:16:30.510Z,0.13
2023-11-15T02:18:59.799Z,0.00
2023-11-15T02:21:29.880Z,0.10
2023-11-15T02:23:59.288Z,5.05
2023-11-15T02:26:28.668Z,0.10
2023-11-15T02:28:57.948Z,0.00
2023-11-15T02:31:27.304Z,0.62
2023-11-15T02:33:56.711Z,0.28
2023-11-15T02:36:26.083Z,0.10
2023-11-15T02:38:55.384Z,0.00
2023-11-15T02:41:24.924Z,0.57
2023-11-15T02:43:54.172Z,5.12
2023-11-15T02:46:23.995Z,1.45
2023-11-15T02:48:53.850Z,0.47
2023-11-15T02:51:23.109Z,1.00
2023-11-15T02:53:53.100Z,0.10
2023-11-15T02:56:22.899Z,0.35
2023-11-15T02:58:53.448Z,0.15
2023-11-15T03:01:22.750Z,0.10
2023-11-15T03:03:52.810Z,0.05
2023-11-15T03:06:22.092Z,0.00
2023-11-15T03:08:51.403Z,1.60
2023-11-15T03:11:20.758Z,0.35
2023-11-15T03:13:50.061Z,0.08
2023-11-15T03:16:19.508Z,0.25
2023-11-15T03:18:48.803Z,1.45
2023-11-15T03:21:18.160Z,9.13
2023-11-15T03:23:47.659Z,0.20
2023-11-15T03:26:17.337Z,0.62
2023-11-15T03:28:46.610Z,0.57
2023-11-15T03:31:16.050Z,0.10
2023-11-15T03:33:47.124Z,0.03
2023-11-15T03:36:17.106Z,2.75
2023-11-15T03:38:46.617Z,1.50
2023-11-15T03:41:16.017Z,10.25
2023-11-15T03:43:45.307Z,2.22
2023-11-15T03:46:14.592Z,1.87
2023-11-15T03:48:43.882Z,0.70
2023-11-15T03:51:13.276Z,5.78
2023-11-15T03:53:42.644Z,19.05
2023-11-15T03:56:11.992Z,3.85
2023-11-15T03:58:42.941Z,1.17
2023-11-15T04:01:12.237Z,2.87
2023-11-15T04:03:41.679Z,0.33
2023-11-15T04:06:11.321Z,0.55
2023-11-15T04:08:42.306Z,0.20
2023-11-15T04:11:11.793Z,0.98
2023-11-15T04:13:41.068Z,1.12
2023-11-15T04:16:10.683Z,0.00
2023-11-15T04:18:40.026Z,2.02
2023-11-15T04:21:09.320Z,0.00
2023-11-15T04:23:38.635Z,0.20
2023-11-15T04:26:07.996Z,0.20
2023-11-15T04:28:37.304Z,0.47
2023-11-15T04:31:06.822Z,0.40
2023-11-15T04:33:36.150Z,0.17
2023-11-15T04:36:06.205Z,0.28
2023-11-15T04:38:35.538Z,0.40
2023-11-15T04:41:06.872Z,0.00
2023-11-15T04:43:36.267Z,2.05
2023-11-15T04:46:05.792Z,0.37
2023-11-15T04:48:36.744Z,0.10
2023-11-15T04:51:06.758Z,0.88
2023-11-15T04:53:36.193Z,0.20
2023-11-15T04:56:05.839Z,0.55
2023-11-15T04:58:35.173Z,0.00
2023-11-15T05:01:05.278Z,2.60
2023-11-15T05:03:34.732Z,0.10
2023-11-15T05:06:05.350Z,41.90
2023-11-15T05:08:34.639Z,0.00
2023-11-15T05:11:04.241Z,0.15
2023-11-15T05:13:33.580Z,7.95
2023-11-15T05:16:04.636Z,2.50
2023-11-15T05:18:34.051Z,0.00
2023-11-15T05:21:03.366Z,0.00
2023-11-15T05:23:32.771Z,0.47
2023-11-15T05:26:02.178Z,0.00
2023-11-15T05:28:31.435Z,0.20
2023-11-15T05:31:00.777Z,1.65
2023-11-15T05:33:31.569Z,0.23
2023-11-15T05:36:01.464Z,0.45
2023-11-15T05:38:30.884Z,0.10
2023-11-15T05:41:00.209Z,0.10
2023-11-15T05:43:29.881Z,0.00
2023-11-15T05:45:59.251Z,1.37
2023-11-15T05:48:28.585Z,0.10
2023-11-15T05:50:57.951Z,0.33
2023-11-15T05:53:27.382Z,1.00
2023-11-15T05:55:56.807Z,0.45
2023-11-15T05:58:26.130Z,0.30
2023-11-15T06:00:55.412Z,0.23
2023-11-15T06:03:25.375Z,0.10
2023-11-15T06:05:54.732Z,0.00
2023-11-15T06:08:25.315Z,0.23
2023-11-15T06:10:54.601Z,0.47
2023-11-15T06:13:25.859Z,0.20
2023-11-15T06:15:55.183Z,0.10
2023-11-15T06:18:24.545Z,0.00
2023-11-15T06:20:53.904Z,1.35
2023-11-15T06:23:23.230Z,0.20
2023-11-15T06:25:52.553Z,0.17
2023-11-15T06:28:21.880Z,0.23
2023-11-15T06:30:51.276Z,0.30
2023-11-15T06:33:21.132Z,0.30
2023-11-15T06:35:50.497Z,0.70
2023-11-15T06:38:19.881Z,1.75
2023-11-15T06:40:50.294Z,0.15
2023-11-15T06:43:19.565Z,0.00
2023-11-15T06:45:48.868Z,0.23
2023-11-15T06:48:18.304Z,0.70
2023-11-15T06:50:47.722Z,1.12
2023-11-15T06:53:17.070Z,0.80
2023-11-15T06:55:47.825Z,0.20
2023-11-15T06:58:18.337Z,0.55
2023-11-15T07:00:49.020Z,0.57
2023-11-15T07:03:19.094Z,0.37
2023-11-15T07:05:50.282Z,0.40
2023-11-15T07:08:21.345Z,3.12
2023-11-15T07:10:50.667Z,0.57
2023-11-15T07:13:21.600Z,0.00
2023-11-15T07:15:51.534Z,0.05
2023-11-15T07:18:24.905Z,0.10
2023-11-15T07:20:53.754Z,0.30
2023-11-15T07:23:23.108Z,0.00
2023-11-15T07:25:52.407Z,0.13
2023-11-15T07:28:22.053Z,0.88
2023-11-15T07:30:51.810Z,0.45
2023-11-15T07:33:24.173Z,1.07
2023-11-15T07:35:53.768Z,0.45
2023-11-15T07:38:24.587Z,0.28
2023-11-15T07:40:53.934Z,0.23
2023-11-15T07:43:24.130Z,0.25
2023-11-15T07:45:55.083Z,0.42
2023-11-15T07:48:26.169Z,1.10
2023-11-15T07:50:57.598Z,0.20
2023-11-15T07:53:28.172Z,0.28
2023-11-15T07:55:59.150Z,1.02
2023-11-15T07:58:28.438Z,24.92
2023-11-15T08:00:57.819Z,1.02
2023-11-15T08:03:28.802Z,0.33
2023-11-15T08:05:58.183Z,1.92
2023-11-15T08:08:28.249Z,1.57
2023-11-15T08:10:57.550Z,3.62
2023-11-15T08:13:27.823Z,30.08
2023-11-15T08:15:57.623Z,0.00
2023-11-15T08:18:27.239Z,0.00
2023-11-15T08:20:57.702Z,4.12
2023-11-15T08:23:27.055Z,0.00
2023-11-15T08:25:56.406Z,0.23
2023-11-15T08:28:25.951Z,0.30
2023-11-15T08:30:55.240Z,0.03
2023-11-15T08:33:24.637Z,0.20
2023-11-15T08:35:54.666Z,2.98
2023-11-15T08:38:26.759Z,4.58
2023-11-15T08:40:56.831Z,0.72
2023-11-15T08:43:26.333Z,0.00
2023-11-15T08:45:57.472Z,0.20
2023-11-15T08:48:26.966Z,0.00
2023-11-15T08:50:56.571Z,1.37
2023-11-15T08:53:26.728Z,0.33
2023-11-15T08:55:56.840Z,0.20
2023-11-15T08:58:27.803Z,0.00
2023-11-15T09:00:59.083Z,0.08
2023-11-15T09:03:28.550Z,0.85
2023-11-15T09:05:59.708Z,1.35
2023-11-15T09:08:30.644Z,0.40
2023-11-15T09:10:59.935Z,0.13
2023-11-15T09:13:30.170Z,5.47
2023-11-15T09:16:00.294Z,0.45
2023-11-15T09:18:30.625Z,4.40
2023-11-15T09:21:01.677Z,1.10
2023-11-15T09:23:31.371Z,0.08
2023-11-15T09:26:00.941Z,0.95
2023-11-15T09:28:30.300Z,1.15
2023-11-15T09:30:59.849Z,38.08
2023-11-15T09:33:31.223Z,0.23
2023-11-15T09:36:01.872Z,1.55
2023-11-15T09:38:32.734Z,0.00
2023-11-15T09:41:02.433Z,0.00
2023-11-15T09:43:32.081Z,32.40
2023-11-15T09:46:04.183Z,0.17
2023-11-15T09:48:34.973Z,0.00
2023-11-15T09:51:05.663Z,4.85
2023-11-15T09:53:37.643Z,1.40
2023-11-15T09:56:09.325Z,0.28
2023-11-15T09:58:38.611Z,1.25
2023-11-15T10:01:09.776Z,0.23
2023-11-15T10:03:43.073Z,0.00
2023-11-15T10:06:14.125Z,0.75
2023-11-15T10:08:55.225Z,0.00
2023-11-15T10:11:27.213Z,0.10
2023-11-15T10:14:13.623Z,0.30
2023-11-15T10:16:50.191Z,0.33
2023-11-15T10:19:25.326Z,23.10
2023-11-15T10:22:03.665Z,25.92
2023-11-15T10:24:35.436Z,23.05
2023-11-15T10:27:12.257Z,19.53
2023-11-15T10:29:49.062Z,18.65
2023-11-15T10:32:24.312Z,27.55
2023-11-15T10:34:55.218Z,22.13
2023-11-15T10:37:25.330Z,17.77
2023-11-15T10:39:54.644Z,18.92
2023-11-15T10:42:24.407Z,19.45
2023-11-15T10:44:56.908Z,18.17
2023-11-15T10:47:27.454Z,15.60
2023-11-15T10:50:03.200Z,19.07
2023-11-15T10:52:33.148Z,16.42
2023-11-15T10:55:03.626Z,16.05
2023-11-15T10:57:33.436Z,16.77
2023-11-15T11:00:04.664Z,17.07
2023-11-15T11:02:35.958Z,20.75
2023-11-15T11:05:06.904Z,19.65
2023-11-15T11:07:41.350Z,13.62
2023-11-15T11:10:13.864Z,18.02
2023-11-15T11:15:25.623Z,11.88
2023-11-15T11:18:15.575Z,15.75
2023-11-15T11:20:48.197Z,13.18
2023-11-15T11:23:21.706Z,16.35
2023-11-15T11:25:53.407Z,16.73
2023-11-15T11:28:23.179Z,16.40
2023-11-15T11:31:21.141Z,1.40
2023-11-15T11:34:13.345Z,0.00
2023-11-15T11:36:52.135Z,1.30
2023-11-15T11:39:50.085Z,0.00
2023-11-15T11:42:29.015Z,0.00
2023-11-15T11:44:58.355Z,0.00
2023-11-15T11:47:27.861Z,0.15
2023-11-15T11:49:58.757Z,20.27
2023-11-15T11:52:28.405Z,0.85
2023-11-15T11:54:57.892Z,0.00
2023-11-15T11:57:27.217Z,0.10
2023-11-15T12:00:16.094Z,0.20
2023-11-15T12:03:00.513Z,1.50
2023-11-15T12:05:26.013Z,0.00
2023-11-15T12:07:57.461Z,0.30
2023-11-15T12:10:27.151Z,0.00
2023-11-15T12:13:00.707Z,0.28
2023-11-15T12:15:30.182Z,0.20
2023-11-15T12:18:01.076Z,0.30
2023-11-15T12:20:40.028Z,21.25
2023-11-15T12:23:11.309Z,17.07
2023-11-15T12:25:53.880Z,6.97
2023-11-15T12:28:24.965Z,0.10
2023-11-15T12:30:56.600Z,0.57
2023-11-15T12:33:27.001Z,0.00
2023-11-15T12:35:57.860Z,0.55
2023-11-15T12:38:27.282Z,8.40
2023-11-15T12:41:07.812Z,0.00
2023-11-15T12:43:38.044Z,0.00
2023-11-15T12:46:20.491Z,0.00
2023-11-15T12:48:49.165Z,0.00
2023-11-15T12:51:19.512Z,0.10
2023-11-15T12:53:48.933Z,0.00
2023-11-15T12:56:20.512Z,0.10
2023-11-15T12:58:52.031Z,0.20
2023-11-15T13:01:21.989Z,0.95
2023-11-15T13:04:00.071Z,0.33
2023-11-15T13:06:34.028Z,0.00
2023-11-15T13:09:04.098Z,1.57
2023-11-15T13:11:33.533Z,0.33
2023-11-15T13:14:02.944Z,2.72
2023-11-15T13:16:33.975Z,0.00
2023-11-15T13:19:04.437Z,0.00
2023-11-15T13:21:33.897Z,0.00
2023-11-15T13:24:03.514Z,0.00
2023-11-15T13:26:32.820Z,1.12
2023-11-15T13:29:03.840Z,0.40
2023-11-15T13:31:33.091Z,0.33
2023-11-15T13:34:02.603Z,0.00
2023-11-15T13:36:32.652Z,0.00
2023-11-15T13:39:03.661Z,1.05
2023-11-15T13:41:32.981Z,0.00
2023-11-15T13:44:02.299Z,1.15
2023-11-15T13:46:33.057Z,1.00
2023-11-15T13:49:04.039Z,0.72
2023-11-15T13:51:33.877Z,0.47
2023-11-15T13:54:03.560Z,1.35
2023-11-15T13:56:33.205Z,0.00
2023-11-15T13:59:02.515Z,0.15
2023-11-15T14:01:31.901Z,5.87
2023-11-15T14:04:01.315Z,0.00
2023-11-15T14:06:30.649Z,36.58
2023-11-15T14:09:01.006Z,6.78
2023-11-15T14:11:30.949Z,0.00
2023-11-15T14:14:00.482Z,4.15
2023-11-15T14:16:29.799Z,0.00
2023-11-15T14:19:00.444Z,0.53
2023-11-15T14:21:31.592Z,0.40
2023-11-15T14:24:00.925Z,1.27
2023-11-15T14:26:30.213Z,0.03
2023-11-15T14:28:59.547Z,0.10
2023-11-15T14:31:29.452Z,0.00
2023-11-15T14:34:00.439Z,2.77
2023-11-15T14:36:30.683Z,1.25
2023-11-15T14:39:00.015Z,0.68
2023-11-15T14:41:30.983Z,0.05
2023-11-15T14:44:00.426Z,1.10
2023-11-15T14:46:31.346Z,0.10
2023-11-15T14:49:00.961Z,0.85
2023-11-15T14:51:30.248Z,0.70
2023-11-15T14:54:01.575Z,1.95
2023-11-15T14:56:31.137Z,0.37
2023-11-15T14:59:00.693Z,1.35
2023-11-15T15:01:30.005Z,1.85
2023-11-15T15:03:59.514Z,0.05
2023-11-15T15:06:29.458Z,0.90
2023-11-15T15:08:59.256Z,2.77
2023-11-15T15:11:28.730Z,0.17
2023-11-15T15:13:58.069Z,20.12
2023-11-15T15:16:28.010Z,23.32
2023-11-15T15:18:57.419Z,17.75
2023-11-15T15:21:26.869Z,24.98
2023-11-15T15:23:56.204Z,16.50
2023-11-15T15:26:25.551Z,14.68
2023-11-15T15:28:55.249Z,21.25
2023-11-15T15:31:24.617Z,15.75
2023-11-15T15:33:54.131Z,18.98
2023-11-15T15:36:24.001Z,15.85
2023-11-15T15:38:53.417Z,18.35
2023-11-15T15:41:23.372Z,17.02
2023-11-15T15:43:55.733Z,16.85
2023-11-15T15:46:24.019Z,20.52
2023-11-15T15:48:54.429Z,16.40
2023-11-15T15:51:25.180Z,16.02
2023-11-15T15:53:54.686Z,16.55
2023-11-15T15:56:25.132Z,17.20
2023-11-15T15:58:54.564Z,18.40
2023-11-15T16:01:29.217Z,21.40
2023-11-15T16:04:00.142Z,26.50
2023-11-15T16:06:29.564Z,21.60
2023-11-15T16:08:59.025Z,20.75
2023-11-15T16:11:28.303Z,23.62
2023-11-15T16:13:57.574Z,16.45
2023-11-15T16:16:26.946Z,23.73
2023-11-15T16:18:56.493Z,20.35
2023-11-15T16:21:25.896Z,30.27
2023-11-15T16:23:56.892Z,25.27
2023-11-15T16:26:26.207Z,35.98
2023-11-15T16:28:55.497Z,33.05
2023-11-15T16:31:24.890Z,31.20
2023-11-15T16:33:54.534Z,27.60
2023-11-15T16:36:23.891Z,21.65
2023-11-15T16:38:53.322Z,24.47
2023-11-15T16:41:22.613Z,23.07
2023-11-15T16:43:51.945Z,21.65
2023-11-15T16:46:21.228Z,20.57
2023-11-15T16:48:50.639Z,24.05
2023-11-15T16:51:20.014Z,22.93
2023-11-15T16:53:51.042Z,22.05
2023-11-15T16:56:20.410Z,20.12
2023-11-15T16:58:49.674Z,18.10
2023-11-15T17:01:19.013Z,19.87
2023-11-15T17:03:48.444Z,21.27
2023-11-15T17:06:20.709Z,18.10
2023-11-15T17:08:50.599Z,25.72
2023-11-15T17:11:20.482Z,17.05
2023-11-15T17:13:50.155Z,24.52
2023-11-15T17:16:19.871Z,19.80
2023-11-15T17:18:49.968Z,16.90
2023-11-15T17:23:48.783Z,17.85
2023-11-15T17:26:18.772Z,18.70
2023-11-15T17:28:48.369Z,17.20
2023-11-15T17:31:22.435Z,20.35
2023-11-15T17:36:21.565Z,17.80
2023-11-15T17:38:51.055Z,23.65
2023-11-15T17:41:21.189Z,18.82
2023-11-15T17:43:50.493Z,23.15
2023-11-15T17:46:20.267Z,18.37
2023-11-15T17:48:49.558Z,18.65
2023-11-15T17:51:18.972Z,19.73
2023-11-15T17:53:48.339Z,26.10
2023-11-15T17:56:17.677Z,13.10
2023-11-15T17:58:48.488Z,24.90
2023-11-15T18:01:18.619Z,18.75
2023-11-15T18:03:48.051Z,18.60
2023-11-15T18:06:19.120Z,19.73
2023-11-15T18:08:48.403Z,24.87
2023-11-15T18:11:18.265Z,23.00
2023-11-15T18:13:47.631Z,21.85
2023-11-15T18:16:17.089Z,28.35
2023-11-15T18:18:46.892Z,15.98
2023-11-15T18:21:16.321Z,22.05
2023-11-15T18:23:45.585Z,20.30
2023-11-15T18:26:15.844Z,16.73
2023-11-15T18:28:45.781Z,23.75
2023-11-15T18:31:15.120Z,20.12
2023-11-15T18:33:44.551Z,16.93
2023-11-15T18:36:13.904Z,16.87
2023-11-15T18:38:43.170Z,20.00
2023-11-15T18:41:13.786Z,17.48
2023-11-15T18:43:44.946Z,21.97
2023-11-15T18:46:14.524Z,14.63
2023-11-15T18:48:44.048Z,21.20
2023-11-15T18:51:13.514Z,21.40
2023-11-15T18:53:42.926Z,20.52
2023-11-15T18:56:12.238Z,19.37
2023-11-15T18:58:41.830Z,28.60
2023-11-15T19:01:11.467Z,21.42
2023-11-15T19:03:40.979Z,21.70
2023-11-15T19:06:10.564Z,23.77
2023-11-15T19:08:40.662Z,24.47
2023-11-15T19:11:09.926Z,21.50
2023-11-15T19:13:40.866Z,24.67
2023-11-15T19:16:10.287Z,20.35
2023-11-15T19:18:39.641Z,14.98
2023-11-15T19:21:09.644Z,20.97
2023-11-15T19:23:40.676Z,22.62
2023-11-15T19:26:11.212Z,20.97
2023-11-15T19:28:42.180Z,22.60
2023-11-15T19:31:11.495Z,21.15
2023-11-15T19:33:42.344Z,16.87
2023-11-15T19:36:12.308Z,17.50
2023-11-15T19:38:42.054Z,17.02
2023-11-15T19:41:11.604Z,31.75
2023-11-15T19:43:42.663Z,18.48
2023-11-15T19:46:19.694Z,23.60
2023-11-15T19:48:49.104Z,24.10
2023-11-15T19:51:22.871Z,20.85
2023-11-15T19:53:56.983Z,22.73
2023-11-15T19:56:26.244Z,16.65
2023-11-15T19:58:55.601Z,17.55
2023-11-15T20:01:26.053Z,19.07
2023-11-15T20:03:55.974Z,19.75
2023-11-15T20:06:29.279Z,18.20
2023-11-15T20:08:58.293Z,16.17
2023-11-15T20:11:28.050Z,27.55
2023-11-15T20:13:57.382Z,19.30
2023-11-15T20:16:28.589Z,18.77
2023-11-15T20:18:58.032Z,18.35
2023-11-15T20:21:27.533Z,15.63
2023-11-15T20:23:56.958Z,17.17
2023-11-15T20:26:26.326Z,13.38
2023-11-15T20:28:55.668Z,17.65
2023-11-15T20:31:26.919Z,19.23
2023-11-15T20:33:56.336Z,31.60
2023-11-15T20:36:25.834Z,35.52
2023-11-15T20:38:55.217Z,22.95
2023-11-15T20:41:24.529Z,21.65
2023-11-15T20:43:53.882Z,13.80
2023-11-15T20:46:23.509Z,22.25
2023-11-15T20:48:54.521Z,21.77
2023-11-15T20:51:23.854Z,13.80
2023-11-15T20:53:53.340Z,19.62
2023-11-15T20:56:22.761Z,14.60
2023-11-15T20:58:52.104Z,15.43
2023-11-15T21:01:22.838Z,14.15
2023-11-15T21:03:55.289Z,19.60
2023-11-15T21:08:53.394Z,17.42
2023-11-15T21:11:24.794Z,20.05
2023-11-15T21:13:55.561Z,14.60
2023-11-15T21:16:25.367Z,15.93
2023-11-15T21:18:55.019Z,18.60
2023-11-15T21:21:24.697Z,18.02
2023-11-15T21:23:54.170Z,12.43
2023-11-15T21:26:23.863Z,13.98
2023-11-15T21:28:54.939Z,14.47
2023-11-15T21:31:24.257Z,12.45
2023-11-15T21:33:53.655Z,17.32
2023-11-15T21:36:23.027Z,12.28
2023-11-15T21:38:52.390Z,20.12
2023-11-15T21:41:21.653Z,12.80
2023-11-15T21:43:51.253Z,12.63
2023-11-15T21:46:21.654Z,15.95
2023-11-15T21:48:51.019Z,13.58
2023-11-15T21:51:23.382Z,20.68
2023-11-15T21:53:54.611Z,16.65
2023-11-15T21:56:23.771Z,17.40
2023-11-15T21:58:53.599Z,16.32
2023-11-15T22:01:24.819Z,16.97
2023-11-15T22:03:54.313Z,17.42
2023-11-15T22:06:24.605Z,15.40
2023-11-15T22:08:54.095Z,11.10
2023-11-15T22:11:23.433Z,13.95
2023-11-15T22:13:52.740Z,15.40
2023-11-15T22:16:22.592Z,16.30
2023-11-15T22:18:51.890Z,15.88
2023-11-15T22:21:21.404Z,17.27
2023-11-15T22:23:50.733Z,11.93
2023-11-15T22:26:20.065Z,10.75
2023-11-15T22:28:52.279Z,10.45
2023-11-15T22:31:21.696Z,23.42
2023-11-15T22:33:52.798Z,13.55
2023-11-15T22:36:22.235Z,16.48
2023-11-15T22:38:52.629Z,16.65
2023-11-15T22:41:22.095Z,11.88
2023-11-15T22:43:51.579Z,10.75
2023-11-15T22:46:20.952Z,16.48
2023-11-15T22:48:50.416Z,11.63
2023-11-15T22:51:20.037Z,15.38
2023-11-15T22:53:49.288Z,12.00
2023-11-15T22:56:19.634Z,12.90
2023-11-15T22:58:48.984Z,14.05
2023-11-15T23:01:18.483Z,12.45
2023-11-15T23:03:49.594Z,13.53
2023-11-15T23:06:19.937Z,14.33
2023-11-15T23:08:52.487Z,12.53
2023-11-15T23:11:23.403Z,11.80
2023-11-15T23:13:56.408Z,15.50
2023-11-15T23:16:26.056Z,13.70
2023-11-15T23:18:55.534Z,15.70
2023-11-15T23:21:25.464Z,15.05
2023-11-15T23:23:54.831Z,17.55
2023-11-15T23:26:26.131Z,18.17
2023-11-15T23:28:55.417Z,20.75
2023-11-15T23:31:26.177Z,16.17
2023-11-15T23:33:55.521Z,11.95
2023-11-15T23:36:24.853Z,16.23
2023-11-15T23:38:54.230Z,15.08
2023-11-15T23:41:25.368Z,19.48
2023-11-15T23:43:56.048Z,12.15
2023-11-15T23:46:25.304Z,12.50
2023-11-15T23:48:54.669Z,15.48
2023-11-15T23:51:24.024Z,17.23
2023-11-15T23:53:53.378Z,22.62
2023-11-15T23:56:22.675Z,13.15
2023-11-15T23:58:53.656Z,10.63
